This is the latest recevied weather packets stored in our database for station/object N0NB. If no packets are shown the sender has not sent any weather packets the latest 10 day(s).
| Time | Temp. | Humidity | Pressure | Rain* | Wind** | Luminosity | Snow |
|---|---|---|---|---|---|---|---|
| 1778071216 | 7.22° C | 66% | 1017.3 hPa | 0 mm | - | 68 W/m² | - |
| 1778070616 | 6.67° C | 67% | 1016.9 hPa | 0 mm | - | 41 W/m² | - |
| 1778070016 | 6.67° C | 70% | 1016.9 hPa | 0 mm | - | 50 W/m² | - |
| 1778069416 | 6.11° C | 70% | 1016.9 hPa | 0 mm | - | 76 W/m² | - |
| 1778068816 | 6.11° C | 69% | 1016.6 hPa | 0 mm | - | 27 W/m² | - |
| 1778068216 | 6.11° C | 69% | 1016.2 hPa | 0 mm | - | 23 W/m² | - |
| 1778067616 | 6.11° C | 69% | 1016 hPa | 0 mm | - | 14 W/m² | - |
| 1778067016 | 6.67° C | 68% | 1016 hPa | 0 mm | - | 6 W/m² | - |
| 1778066416 | 6.67° C | 68% | 1015.9 hPa | 0 mm | - | 0 W/m² | - |
| 1778065816 | 6.67° C | 66% | 1015.9 hPa | 0 mm | - | 0 W/m² | - |
| 1778065215 | 6.67° C | 66% | 1015.8 hPa | 0 mm | - | 0 W/m² | - |
| 1778064616 | 6.67° C | 68% | 1015.9 hPa | 0 mm | - | 0 W/m² | - |
| 1778064015 | 7.22° C | 67% | 1015.8 hPa | 0 mm | - | 0 W/m² | - |
| 1778063416 | 7.22° C | 66% | 1015.8 hPa | 0 mm | - | 0 W/m² | - |
| 1778062815 | 7.22° C | 64% | 1015.9 hPa | 0 mm | - | 0 W/m² | - |
| 1778062215 | 7.22° C | 65% | 1015.8 hPa | 0 mm | - | 0 W/m² | - |
| 1778061615 | 7.22° C | 68% | 1015.8 hPa | 0 mm | - | 0 W/m² | - |
| 1778061015 | 7.22° C | 67% | 1015.7 hPa | 0 mm | - | 0 W/m² | - |
| 1778060418 | 7.22° C | 65% | 1015.7 hPa | 0 mm | - | 0 W/m² | - |
| 1778059817 | 7.22° C | 67% | 1015.6 hPa | 0 mm | - | 0 W/m² | - |
| 1778059217 | 7.78° C | 70% | 1015.7 hPa | 0 mm | - | 0 W/m² | - |
| 1778058617 | 7.78° C | 68% | 1015.5 hPa | 0 mm | - | 0 W/m² | - |
| 1778058017 | 7.78° C | 68% | 1015.3 hPa | 0 mm | - | 0 W/m² | - |
| 1778057417 | 8.33° C | 65% | 1015.2 hPa | 0 mm | - | 0 W/m² | - |
| 1778056817 | 8.33° C | 61% | 1015.1 hPa | 0 mm | - | 0 W/m² | - |
* Rain latest hour (hover to see other rain measurements)
** Current wind speed in m/s (hover to see current wind gust speed)